^^
Station Historical Data
Daily Summary for February 20, 2017 Units:  English    Metric   Both
« Previous Day
Next Day »
Daily Weekly Monthly Yearly Custom
  High: Low: Average:
Temperature: 52.0 °F 31.2 °F 43.6 °F
Dew Point: 35.2 °F 15.8 °F 26.9 °F
Humidity: 78% 27% 54%
Wind Speed: 5.0mph 0.0mph 0.9mph
Wind Gust: 15.0mph - -
Wind- - WSW
Pressure: 30.37 in 30.00 in -
Precipitation: 0.00 in    
Historical Graphs
 
 
Tabular Data for February 20, 2017
Time Temperature Dew Point Pressure Wind Wind Speed Wind Gust Humidity Rainfall Rate (Hourly) Conditions
00:14 49.8 °F 35.2 °F 30.01 in North 1.0 mph 12.0 mph 57% 0.00 in CLR
00:29 48.9 °F 35.2 °F 30.00 in South 1.0 mph 6.0 mph 59% 0.00 in CLR
00:44 48.4 °F 35.1 °F 30.01 in North 1.0 mph 6.0 mph 60% 0.00 in CLR
00:59 47.6 °F 34.8 °F 30.01 in SW 1.0 mph 5.0 mph 61% 0.00 in CLR
01:14 47.1 °F 34.7 °F 30.01 in Calm   4.0 mph 62% 0.00 in CLR
01:29 46.6 °F 34.7 °F 30.02 in Calm   2.0 mph 63% 0.00 in CLR
01:44 46.0 °F 34.5 °F 30.02 in Calm   2.0 mph 64% 0.00 in CLR
01:59 45.9 °F 34.4 °F 30.02 in Calm   2.0 mph 64% 0.00 in CLR
02:14 46.0 °F 34.1 °F 30.02 in Calm   4.0 mph 63% 0.00 in CLR
02:29 45.5 °F 34.0 °F 30.03 in Calm   2.0 mph 64% 0.00 in CLR
02:44 43.7 °F 33.4 °F 30.03 in Calm   1.0 mph 67% 0.00 in CLR
02:59 44.1 °F 33.8 °F 30.03 in Calm   2.0 mph 67% 0.00 in CLR
03:14 43.7 °F 33.8 °F 30.04 in Calm   2.0 mph 68% 0.00 in CLR
03:29 43.4 °F 33.5 °F 30.05 in Calm   2.0 mph 68% 0.00 in CLR
03:44 43.5 °F 33.7 °F 30.06 in Calm   3.0 mph 68% 0.00 in CLR
03:59 43.6 °F 33.3 °F 30.06 in Calm   3.0 mph 67% 0.00 in CLR
04:14 43.1 °F 33.2 °F 30.06 in Calm   3.0 mph 68% 0.00 in CLR
04:29 42.6 °F 33.2 °F 30.07 in Calm   3.0 mph 69% 0.00 in CLR
04:44 42.3 °F 32.8 °F 30.08 in Calm   2.0 mph 69% 0.00 in CLR
04:59 41.5 °F 32.8 °F 30.09 in Calm   1.0 mph 71% 0.00 in CLR
05:14 40.8 °F 32.8 °F 30.09 in Calm   1.0 mph 73% 0.00 in CLR
05:29 40.9 °F 32.6 °F 30.10 in Calm   2.0 mph 72% 0.00 in CLR
05:44 40.1 °F 32.2 °F 30.11 in Calm   1.0 mph 73% 0.00 in CLR
05:59 39.8 °F 32.2 °F 30.12 in Calm   2.0 mph 74% 0.00 in CLR
06:14 39.4 °F 32.1 °F 30.12 in Calm   2.0 mph 75% 0.00 in CLR
06:29 38.9 °F 32.0 °F 30.13 in Calm   1.0 mph 76% 0.00 in CLR
06:44 38.8 °F 31.9 °F 30.15 in Calm   3.0 mph 76% 0.00 in CLR
06:59 38.4 °F 31.8 °F 30.15 in Calm   1.0 mph 77% 0.00 in CLR
07:14 38.2 °F 31.7 °F 30.15 in Calm   1.0 mph 77% 0.00 in CLR
07:29 38.2 °F 31.9 °F 30.16 in Calm   1.0 mph 78% 0.00 in CLR
07:44 39.1 °F 32.5 °F 30.16 in Calm   1.0 mph 77% 0.00 in CLR
07:59 39.5 °F 32.2 °F 30.16 in Calm   2.0 mph 75% 0.00 in CLR
08:14 40.2 °F 32.9 °F 30.17 in Calm   3.0 mph 75% 0.00 in CLR
08:29 41.0 °F 32.6 °F 30.18 in NNE 1.0 mph 3.0 mph 72% 0.00 in CLR
08:44 41.9 °F 32.8 °F 30.18 in NNW 1.0 mph 5.0 mph 70% 0.00 in CLR
08:59 43.0 °F 33.2 °F 30.18 in Calm   4.0 mph 68% 0.00 in CLR
09:14 44.1 °F 33.1 °F 30.19 in Calm   5.0 mph 65% 0.00 in CLR
09:29 44.7 °F 33.3 °F 30.20 in NNW 3.0 mph 7.0 mph 64% 0.00 in CLR
09:44 45.6 °F 32.9 °F 30.20 in NNW 2.0 mph 7.0 mph 61% 0.00 in CLR
09:59 45.8 °F 32.7 °F 30.20 in NNW 1.0 mph 7.0 mph 60% 0.00 in CLR
10:14 46.2 °F 32.7 °F 30.20 in NNW 1.0 mph 6.0 mph 59% 0.00 in FEW
10:29 46.3 °F 32.3 °F 30.21 in West 1.0 mph 8.0 mph 58% 0.00 in FEW
10:44 46.5 °F 32.1 °F 30.22 in NW 1.0 mph 9.0 mph 57% 0.00 in FEW
10:59 46.8 °F 31.9 °F 30.21 in Calm   6.0 mph 56% 0.00 in FEW
11:14 47.3 °F 29.6 °F 30.21 in NW 3.0 mph 13.0 mph 50% 0.00 in FEW
11:29 48.0 °F 29.7 °F 30.20 in NNW 1.0 mph 8.0 mph 49% 0.00 in FEW
11:44 48.6 °F 29.8 °F 30.20 in NNE 5.0 mph 10.0 mph 48% 0.00 in FEW
11:59 47.8 °F 30.1 °F 30.20 in NW 1.0 mph 7.0 mph 50% 0.00 in FEW
12:14 48.5 °F 30.2 °F 30.20 in Calm   8.0 mph 49% 0.00 in FEW
12:30 49.7 °F 30.8 °F 30.20 in North 1.0 mph 6.0 mph 48% 0.00 in FEW
12:45 50.3 °F 30.8 °F 30.19 in NW 2.0 mph 8.0 mph 47% 0.00 in FEW
13:00 50.3 °F 29.7 °F 30.19 in NW 1.0 mph 6.0 mph 45% 0.00 in FEW
13:15 50.6 °F 29.5 °F 30.19 in WNW 2.0 mph 8.0 mph 44% 0.00 in FEW
13:30 51.0 °F 28.1 °F 30.18 in WNW 3.0 mph 8.0 mph 41% 0.00 in FEW
13:45 51.2 °F 28.3 °F 30.18 in North 1.0 mph 9.0 mph 41% 0.00 in FEW
14:00 51.1 °F 27.6 °F 30.18 in NNW 3.0 mph 10.0 mph 40% 0.00 in FEW
14:15 51.6 °F 26.8 °F 30.18 in NW 3.0 mph 11.0 mph 38% 0.00 in CLR
14:30 51.6 °F 24.1 °F 30.18 in North 5.0 mph 9.0 mph 34% 0.00 in CLR
15:00 52.0 °F 23.7 °F 30.18 in NW 1.0 mph 9.0 mph 33% 0.00 in CLR
15:15 51.8 °F 21.3 °F 30.18 in NW 2.0 mph 9.0 mph 30% 0.00 in CLR
15:30 51.4 °F 20.2 °F 30.19 in NW 5.0 mph 9.0 mph 29% 0.00 in CLR
15:45 51.2 °F 20.8 °F 30.20 in North 3.0 mph 9.0 mph 30% 0.00 in CLR
16:00 51.3 °F 21.6 °F 30.21 in NW 3.0 mph 12.0 mph 31% 0.00 in CLR
16:15 50.5 °F 20.2 °F 30.22 in NNW 3.0 mph 12.0 mph 30% 0.00 in CLR
16:30 50.1 °F 19.0 °F 30.23 in North 1.0 mph 10.0 mph 29% 0.00 in CLR
16:45 49.3 °F 17.5 °F 30.24 in NW 1.0 mph 7.0 mph 28% 0.00 in CLR
17:00 48.4 °F 15.9 °F 30.25 in North 2.0 mph 10.0 mph 27% 0.00 in CLR
17:15 47.3 °F 15.8 °F 30.25 in North 3.0 mph 13.0 mph 28% 0.00 in CLR
17:30 45.7 °F 16.0 °F 30.27 in NW 2.0 mph 15.0 mph 30% 0.00 in CLR
17:45 44.5 °F 16.4 °F 30.28 in NW 1.0 mph 6.0 mph 32% 0.00 in CLR
18:00 43.0 °F 17.8 °F 30.29 in NW 1.0 mph 5.0 mph 36% 0.00 in CLR
18:15 42.7 °F 16.9 °F 30.30 in NNE 1.0 mph 7.0 mph 35% 0.00 in CLR
18:30 42.0 °F 16.3 °F 30.31 in Calm   7.0 mph 35% 0.00 in CLR
18:45 40.9 °F 16.6 °F 30.33 in Calm   2.0 mph 37% 0.00 in CLR
19:00 40.2 °F 17.2 °F 30.33 in Calm   2.0 mph 39% 0.00 in CLR
19:15 39.0 °F 17.3 °F 30.33 in Calm   1.0 mph 41% 0.00 in CLR
19:30 38.3 °F 16.6 °F 30.34 in Calm   1.0 mph 41% 0.00 in CLR
19:45 39.1 °F 16.2 °F 30.34 in Calm   5.0 mph 39% 0.00 in CLR
20:00 39.0 °F 17.2 °F 30.34 in NNW 1.0 mph 7.0 mph 41% 0.00 in CLR
20:15 38.3 °F 18.3 °F 30.35 in Calm   10.0 mph 44% 0.00 in CLR
20:30 38.2 °F 19.2 °F 30.34 in NE 1.0 mph 8.0 mph 46% 0.00 in CLR
20:45 38.1 °F 19.1 °F 30.35 in NNW 1.0 mph 8.0 mph 46% 0.00 in CLR
21:00 37.6 °F 19.7 °F 30.36 in Calm   8.0 mph 48% 0.00 in CLR
21:15 37.5 °F 19.6 °F 30.36 in NNW 2.0 mph 6.0 mph 48% 0.00 in CLR
21:30 37.1 °F 19.7 °F 30.35 in NNE 2.0 mph 5.0 mph 49% 0.00 in CLR
21:45 37.0 °F 19.1 °F 30.36 in Calm   7.0 mph 48% 0.00 in CLR
22:00 36.5 °F 19.1 °F 30.36 in Calm   6.0 mph 49% 0.00 in CLR
22:15 35.8 °F 19.4 °F 30.36 in Calm   3.0 mph 51% 0.00 in CLR
22:30 34.9 °F 19.5 °F 30.36 in Calm   3.0 mph 53% 0.00 in CLR
22:45 33.5 °F 19.4 °F 30.36 in Calm   1.0 mph 56% 0.00 in CLR
23:00 33.1 °F 19.5 °F 30.37 in Calm   1.0 mph 57% 0.00 in CLR
23:15 32.5 °F 18.9 °F 30.37 in Calm   1.0 mph 57% 0.00 in CLR
23:30 31.9 °F 18.8 °F 30.37 in Calm     58% 0.00 in CLR
23:45 31.2 °F 17.7 °F 30.37 in Calm     57% 0.00 in CLR
TarryTown NY Weather
Compliments of Weather Underground - 1.5 mb